createdAt,value
2022-09-21T00:02:54.357Z,5.23
2022-09-21T00:07:54.384Z,5.02
2022-09-21T00:12:54.388Z,4.87
2022-09-21T00:17:54.385Z,5.46
2022-09-21T00:22:54.401Z,5.42
2022-09-21T00:27:54.374Z,5.65
2022-09-21T00:32:54.370Z,5.92
2022-09-21T00:37:54.369Z,5.84
2022-09-21T00:42:54.392Z,5.79
2022-09-21T00:47:54.378Z,5.8
2022-09-21T00:52:54.406Z,5.32
2022-09-21T00:57:54.408Z,5.23
2022-09-21T01:02:54.381Z,5.54
2022-09-21T01:07:54.386Z,5.57
2022-09-21T01:12:54.411Z,5.62
2022-09-21T01:17:54.403Z,5.19
2022-09-21T01:22:54.422Z,5.33
2022-09-21T01:27:54.425Z,5.32
2022-09-21T01:32:54.426Z,5.37
2022-09-21T01:37:54.390Z,5.69
2022-09-21T01:42:54.396Z,5.87
2022-09-21T01:47:54.431Z,6.31
2022-09-21T01:52:54.440Z,6.33
2022-09-21T01:57:54.435Z,6.26
2022-09-21T02:02:54.428Z,6.13
2022-09-21T02:07:54.407Z,5.86
2022-09-21T02:12:54.466Z,5.86
2022-09-21T02:17:54.400Z,5.13
2022-09-21T02:22:54.417Z,4.79
2022-09-21T02:27:54.447Z,4.73
2022-09-21T02:32:54.419Z,4.44
2022-09-21T02:37:54.420Z,5.74
2022-09-21T02:42:54.419Z,6.2
2022-09-21T02:47:54.429Z,6.23
2022-09-21T02:52:54.461Z,5.89
2022-09-21T02:57:54.432Z,5.99
2022-09-21T03:02:54.439Z,5.64
2022-09-21T03:07:54.454Z,5.28
2022-09-21T03:12:54.441Z,6.23
2022-09-21T03:17:54.476Z,6.46
2022-09-21T03:22:54.445Z,6.59
2022-09-21T03:27:54.463Z,6.1
2022-09-21T03:32:54.448Z,5.77
2022-09-21T03:37:54.479Z,6.11
2022-09-21T03:42:54.470Z,6.33
2022-09-21T03:47:54.487Z,6.38
2022-09-21T03:52:54.481Z,6.93
2022-09-21T03:57:54.445Z,8.22
2022-09-21T04:02:54.539Z,7.56
2022-09-21T04:07:54.482Z,7.05
2022-09-21T04:12:54.476Z,7.13
2022-09-21T04:17:54.483Z,7.34
2022-09-21T04:22:54.498Z,6.86
2022-09-21T04:27:54.482Z,7.24
2022-09-21T04:32:54.500Z,7.29
2022-09-21T04:37:54.499Z,7.32
2022-09-21T04:42:54.523Z,7.35
2022-09-21T04:47:54.477Z,7.34
2022-09-21T04:52:54.511Z,7.27
2022-09-21T04:57:54.530Z,7.53
2022-09-21T05:02:54.506Z,7.29
2022-09-21T05:07:54.484Z,7.06
2022-09-21T05:12:54.507Z,6.94
2022-09-21T05:17:54.483Z,7.31
2022-09-21T05:22:54.491Z,7.66
2022-09-21T05:27:54.501Z,7.85
2022-09-21T05:32:54.491Z,7.15
2022-09-21T05:37:54.487Z,7.1
2022-09-21T05:42:54.531Z,7.74
2022-09-21T05:47:54.575Z,8.37
2022-09-21T05:52:54.501Z,8.2
2022-09-21T05:57:54.527Z,7.92
2022-09-21T06:02:54.526Z,7.83
2022-09-21T06:07:54.560Z,7.81
2022-09-21T06:17:54.513Z,7.42
2022-09-21T06:22:54.549Z,8.04
2022-09-21T06:27:54.550Z,7.82
2022-09-21T06:32:54.520Z,7.47
2022-09-21T06:37:54.560Z,7.6
2022-09-21T06:42:54.554Z,7.79
2022-09-21T06:47:54.524Z,7.82
2022-09-21T06:52:54.522Z,7.8
2022-09-21T06:57:54.536Z,8.29
2022-09-21T07:02:54.538Z,8.12
2022-09-21T07:07:54.532Z,8.03
2022-09-21T07:12:54.569Z,7.83
2022-09-21T07:18:05.122Z,7.44
2022-09-21T07:22:54.567Z,7.62
2022-09-21T07:27:54.546Z,7.42
2022-09-21T07:32:54.575Z,7.17
2022-09-21T07:37:54.562Z,7.33
2022-09-21T07:42:54.544Z,7.17
2022-09-21T07:47:54.548Z,7.19
2022-09-21T07:52:54.553Z,7.69
2022-09-21T07:57:54.586Z,7.03
2022-09-21T08:02:54.585Z,6.9
2022-09-21T08:07:54.549Z,6.01
2022-09-21T08:12:54.561Z,5.83
2022-09-21T08:17:54.573Z,6.37
2022-09-21T08:22:54.599Z,6.1
2022-09-21T08:27:54.603Z,6.05
2022-09-21T08:32:54.629Z,6.08
2022-09-21T08:37:54.578Z,5.86
2022-09-21T08:42:54.601Z,5.98
2022-09-21T08:47:54.576Z,6.08
2022-09-21T08:52:54.581Z,6.16
2022-09-21T08:57:54.583Z,5.86
2022-09-21T09:02:54.590Z,6.66
2022-09-21T09:07:54.617Z,7.32
2022-09-21T09:12:54.617Z,6.93
2022-09-21T09:17:54.602Z,6.38
2022-09-21T09:22:54.595Z,6.36
2022-09-21T09:27:54.617Z,6.36
2022-09-21T09:32:54.585Z,5.94
2022-09-21T09:37:54.623Z,7.78
2022-09-21T09:42:54.612Z,7.25
2022-09-21T09:47:54.621Z,6.54
2022-09-21T09:52:54.623Z,6.36
2022-09-21T09:57:54.597Z,5.8
2022-09-21T10:02:54.615Z,5.27
2022-09-21T10:07:54.601Z,4.67
2022-09-21T10:12:54.614Z,4.92
2022-09-21T10:17:54.618Z,4.3
2022-09-21T10:22:54.635Z,3.77
2022-09-21T10:27:54.647Z,3.67
2022-09-21T10:32:54.656Z,4.21
2022-09-21T10:37:54.628Z,4.2
2022-09-21T10:42:54.660Z,3.76
2022-09-21T10:47:54.663Z,3.16
2022-09-21T10:52:54.619Z,2.77
2022-09-21T10:57:54.635Z,2.86
2022-09-21T11:02:54.701Z,3.32
2022-09-21T11:07:54.647Z,2.77
2022-09-21T11:12:54.646Z,2.86
2022-09-21T11:17:54.666Z,3.43
2022-09-21T11:22:57.510Z,3.46
2022-09-21T11:27:54.684Z,3.4
2022-09-21T11:32:54.704Z,3.04
2022-09-21T11:37:54.707Z,3.24
2022-09-21T11:42:54.658Z,3.47
2022-09-21T11:47:54.669Z,3.67
2022-09-21T11:52:54.672Z,6.34
2022-09-21T11:57:55.056Z,5.63
2022-09-21T12:02:54.702Z,4.35
2022-09-21T12:07:54.673Z,3.76
2022-09-21T12:12:54.673Z,3.52
2022-09-21T12:22:54.666Z,2.97
2022-09-21T12:27:54.730Z,2.62
2022-09-21T12:32:54.716Z,2.2
2022-09-21T12:37:54.711Z,2.07
2022-09-21T12:42:54.686Z,2.21
2022-09-21T12:47:54.689Z,1.86
2022-09-21T12:52:54.685Z,1.94
2022-09-21T12:58:13.900Z,2.74
2022-09-21T13:02:54.692Z,3.72
2022-09-21T13:07:54.687Z,3.32
2022-09-21T13:12:54.728Z,3.31
2022-09-21T13:17:54.724Z,2.87
2022-09-21T13:22:54.754Z,3.28
2022-09-21T13:27:54.711Z,2.6
2022-09-21T13:32:54.739Z,3.28
2022-09-21T13:37:54.700Z,2.97
2022-09-21T13:42:54.701Z,2.46
2022-09-21T13:47:54.705Z,3.39
2022-09-21T13:52:54.716Z,3.24
2022-09-21T13:57:54.754Z,2.8
2022-09-21T14:02:54.791Z,2.39
2022-09-21T14:07:54.724Z,2.15
2022-09-21T14:12:54.726Z,2.31
2022-09-21T14:17:54.763Z,2.14
2022-09-21T14:22:54.774Z,2.33
2022-09-21T14:27:54.754Z,2.04
2022-09-21T14:32:54.769Z,2.32
2022-09-21T14:37:54.783Z,2.82
2022-09-21T14:42:54.745Z,3.93
2022-09-21T14:47:54.745Z,3.69
2022-09-21T14:52:54.750Z,3.73
2022-09-21T14:57:54.748Z,3.12
2022-09-21T15:02:54.753Z,2.94
2022-09-21T15:07:54.780Z,4.21
2022-09-21T15:12:54.755Z,2.78
2022-09-21T15:17:58.710Z,2.74
2022-09-21T15:22:54.761Z,9.09
2022-09-21T15:27:54.789Z,3.36
2022-09-21T15:32:54.798Z,3.99
2022-09-21T15:37:54.758Z,4.22
2022-09-21T15:42:54.770Z,4.92
2022-09-21T15:47:54.771Z,4.29
2022-09-21T15:52:54.804Z,4.23
2022-09-21T15:57:54.767Z,2.53
2022-09-21T16:02:54.813Z,3
2022-09-21T16:07:54.780Z,3.03
2022-09-21T16:12:54.784Z,2.5
2022-09-21T16:17:54.789Z,3.01
2022-09-21T16:22:54.822Z,2.68
2022-09-21T16:27:54.792Z,3.03
2022-09-21T16:32:54.789Z,2.83
2022-09-21T16:37:54.797Z,3.96
2022-09-21T16:42:54.788Z,7.61
2022-09-21T16:47:54.794Z,19.77
2022-09-21T16:52:54.823Z,20.27
2022-09-21T16:57:54.805Z,13.05
2022-09-21T17:02:54.836Z,5.71
2022-09-21T17:07:54.834Z,4.84
2022-09-21T17:12:54.831Z,4.9
2022-09-21T17:17:54.832Z,3.1
2022-09-21T17:22:54.840Z,2.83
2022-09-21T17:27:54.855Z,3.23
2022-09-21T17:32:54.844Z,4.23
2022-09-21T17:37:54.853Z,5.43
2022-09-21T17:42:54.823Z,6.22
2022-09-21T17:47:54.849Z,11.13
2022-09-21T17:52:54.854Z,11.21
2022-09-21T17:57:54.866Z,10
2022-09-21T18:02:54.885Z,9.19
2022-09-21T18:07:54.837Z,7.69
2022-09-21T18:12:54.867Z,7.68
2022-09-21T18:17:54.885Z,7.39
2022-09-21T18:22:54.836Z,10.79
2022-09-21T18:27:54.863Z,9.97
2022-09-21T18:32:54.854Z,8.63
2022-09-21T18:37:54.830Z,7.38
2022-09-21T18:42:54.885Z,6.39
2022-09-21T18:47:54.859Z,7.89
2022-09-21T18:52:54.853Z,7.98
2022-09-21T18:57:54.890Z,13.13
2022-09-21T19:03:15.614Z,7.82
2022-09-21T19:07:54.848Z,5.6
2022-09-21T19:12:54.861Z,5.48
2022-09-21T19:17:54.885Z,5.64
2022-09-21T19:22:54.891Z,5.12
2022-09-21T19:27:54.869Z,5.35
2022-09-21T19:32:54.867Z,4.86
2022-09-21T19:37:54.907Z,4.92
2022-09-21T19:42:54.901Z,5.04
2022-09-21T19:47:54.907Z,4.96
2022-09-21T19:52:54.901Z,4.62
2022-09-21T19:57:54.887Z,4.93
2022-09-21T20:02:54.917Z,6.32
2022-09-21T20:07:54.923Z,5.59
2022-09-21T20:12:54.881Z,5.8
2022-09-21T20:17:54.914Z,5.79
2022-09-21T20:22:54.925Z,5.98
2022-09-21T20:27:54.892Z,5.38
2022-09-21T20:32:54.933Z,4.83
2022-09-21T20:37:57.521Z,7.4
2022-09-21T20:42:54.934Z,5.95
2022-09-21T20:47:54.901Z,5
2022-09-21T20:52:54.902Z,5.04
2022-09-21T20:57:54.936Z,4.25
2022-09-21T21:02:54.958Z,3.92
2022-09-21T21:07:54.939Z,4.14
2022-09-21T21:12:54.911Z,3.99
2022-09-21T21:17:54.908Z,4.1
2022-09-21T21:22:54.937Z,4.07
2022-09-21T21:27:54.947Z,4.48
2022-09-21T21:32:54.918Z,4.34
2022-09-21T21:37:54.964Z,4.03
2022-09-21T21:42:54.940Z,3.82
2022-09-21T21:47:54.929Z,3.42
2022-09-21T21:52:54.963Z,3.56
2022-09-21T21:57:54.952Z,4.24
2022-09-21T22:02:54.919Z,4.81
2022-09-21T22:07:54.924Z,4.6
2022-09-21T22:12:54.965Z,4.26
2022-09-21T22:17:54.923Z,4.06
2022-09-21T22:22:54.955Z,3.81
2022-09-21T22:27:54.975Z,3.77
2022-09-21T22:32:54.970Z,3.78
2022-09-21T22:37:54.974Z,3.79
2022-09-21T22:42:54.946Z,3.89
2022-09-21T22:47:54.947Z,3.63
2022-09-21T22:52:54.989Z,4
2022-09-21T22:57:54.945Z,4.05
2022-09-21T23:02:54.990Z,3.84
2022-09-21T23:07:54.990Z,3.59
2022-09-21T23:12:54.984Z,3.31
2022-09-21T23:17:54.991Z,3.5
2022-09-21T23:22:55.017Z,3.2
2022-09-21T23:27:55.004Z,3.3
2022-09-21T23:32:54.998Z,3.24
2022-09-21T23:37:54.999Z,3.19
2022-09-21T23:42:54.998Z,3.1
2022-09-21T23:47:54.975Z,3.24
2022-09-21T23:52:55.011Z,3.23
2022-09-21T23:57:55.018Z,3.02
